This is the latest recevied weather packets stored in our database for station/object LRAR. If no packets are shown the sender has not sent any weather packets the latest 10 day(s).
| Time | Temp. | Humidity | Pressure | Rain* | Wind** | Luminosity | Snow |
|---|---|---|---|---|---|---|---|
| 1777807118 | 17.78° C | 32% | 1021 hPa | - | - | - | - |
| 1777806239 | 17.78° C | 32% | 1021 hPa | - | - | - | - |
| 1777805364 | 17.22° C | 32% | 1022 hPa | - | - | - | - |
| 1777804427 | 17.22° C | 32% | 1022 hPa | - | - | - | - |
| 1777803519 | 17.22° C | 37% | 1022 hPa | - | - | - | - |
| 1777802618 | 17.22° C | 37% | 1022 hPa | - | - | - | - |
| 1777801719 | 16.11° C | 39% | 1022 hPa | - | - | - | - |
| 1777800819 | 16.11° C | 39% | 1022 hPa | - | - | - | - |
| 1777799919 | 16.11° C | 42% | 1023 hPa | - | - | - | - |
| 1777799039 | 16.11° C | 42% | 1023 hPa | - | - | - | - |
| 1777798119 | 15° C | 42% | 1023 hPa | - | - | - | - |
| 1777797218 | 15° C | 42% | 1023 hPa | - | - | - | - |
| 1777796319 | 15° C | 42% | 1023 hPa | - | - | - | - |
| 1777795429 | 15° C | 42% | 1023 hPa | - | - | - | - |
| 1777794518 | 13.89° C | 51% | 1023 hPa | - | - | - | - |
| 1777793618 | 13.89° C | 51% | 1023 hPa | - | - | - | - |
| 1777792717 | 12.78° C | 55% | 1023 hPa | - | - | - | - |
| 1777791819 | 12.78° C | 55% | 1023 hPa | - | - | - | - |
| 1777790919 | 12.22° C | 58% | 1023 hPa | - | - | - | - |
| 1777790055 | 12.22° C | 58% | 1023 hPa | - | - | - | - |
| 1777789120 | 11.11° C | 62% | 1023 hPa | - | - | - | - |
| 1777788218 | 11.11° C | 62% | 1023 hPa | - | - | - | - |
| 1777787318 | 10° C | 67% | 1022 hPa | - | - | - | - |
| 1777786418 | 10° C | 67% | 1022 hPa | - | - | - | - |
| 1777785518 | 7.78° C | 76% | 1022 hPa | - | - | - | - |
* Rain since midnight (hover to see other rain measurements)
** Current wind speed in m/s (hover to see current wind gust speed)